Time;durP1;ratioP1;P1;durP2;ratioP2;P2;SDS_P1;SDS_P2;PMS_P1;PMS_P2;Temp;Humidity;BMP_temperature;BMP_pressure;BME280_temperature;BME280_humidity;BME280_pressure;Samples;Min_cycle;Max_cycle;Signal;HPM_P1;HPM_P2
2021/06/18 00:02:14;;;;;;;9.07;5.93;;;;;;;24.64;57.02;101210.28;5074199;28;20090;-50
2021/06/18 00:04:42;;;;;;;9.57;6.00;;;;;;;24.65;56.82;101213.88;5072725;28;20044;-52
2021/06/18 00:07:10;;;;;;;9.82;5.85;;;;;;;24.61;57.18;101208.22;5073988;28;20651;-52
2021/06/18 00:09:37;;;;;;;10.15;5.50;;;;;;;24.43;57.51;101206.84;5073746;28;20086;-55
2021/06/18 00:12:06;;;;;;;11.35;6.38;;;;;;;24.35;57.84;101202.25;5074216;28;20045;-52
2021/06/18 00:14:34;;;;;;;8.45;5.57;;;;;;;24.34;57.84;101197.81;5060249;28;20044;-51
2021/06/18 00:17:01;;;;;;;13.05;6.07;;;;;;;24.35;57.73;101200.25;5073827;28;20053;-52
2021/06/18 00:19:29;;;;;;;11.52;5.72;;;;;;;24.37;57.67;101197.13;5072234;28;20547;-52
2021/06/18 00:21:57;;;;;;;11.68;6.10;;;;;;;24.31;57.93;101199.34;5073286;28;20070;-50
2021/06/18 00:24:24;;;;;;;9.63;5.75;;;;;;;24.28;58.14;101211.19;5073943;28;20525;-49
2021/06/18 00:26:58;;;;;;;9.95;5.47;;;;;;;24.27;58.33;101203.16;5074101;28;20399;-53
2021/06/18 00:29:26;;;;;;;10.80;6.07;;;;;;;24.31;58.00;101190.97;5073923;28;20044;-53
2021/06/18 00:32:00;;;;;;;12.15;6.00;;;;;;;24.23;58.24;101192.75;5074245;28;20060;-51
2021/06/18 00:34:27;;;;;;;14.38;5.85;;;;;;;24.22;58.47;101193.91;5074042;28;20044;-51
2021/06/18 00:36:55;;;;;;;8.70;5.43;;;;;;;24.19;58.56;101197.38;5073573;28;20111;-54
2021/06/18 00:39:23;;;;;;;10.93;5.85;;;;;;;24.19;58.43;101197.38;5074321;28;20067;-49
2021/06/18 00:41:51;;;;;;;15.20;6.65;;;;;;;24.22;58.49;101201.44;5074706;28;20048;-54
2021/06/18 00:44:19;;;;;;;11.77;6.32;;;;;;;24.17;58.63;101205.31;5074850;28;20499;-51
2021/06/18 00:46:47;;;;;;;8.57;5.40;;;;;;;24.11;58.79;101206.69;5074830;28;20094;-55
2021/06/18 00:49:14;;;;;;;10.02;6.30;;;;;;;24.15;58.66;101202.06;5073897;28;20048;-51
2021/06/18 00:51:42;;;;;;;11.90;6.60;;;;;;;24.15;58.36;101193.72;5069843;28;20079;-50
2021/06/18 00:54:12;;;;;;;11.52;6.05;;;;;;;24.11;58.46;101173.28;5064371;28;20032;-54
2021/06/18 00:56:41;;;;;;;11.13;6.40;;;;;;;24.19;58.44;101169.53;5073916;28;20380;-51
2021/06/18 00:59:08;;;;;;;10.95;6.32;;;;;;;24.21;58.35;101167.22;5074364;28;20072;-51
2021/06/18 01:01:36;;;;;;;12.48;7.30;;;;;;;24.17;58.35;101160.75;5074029;28;20083;-56
2021/06/18 01:04:04;;;;;;;10.70;6.53;;;;;;;24.16;58.25;101153.56;5073315;28;20402;-52
2021/06/18 01:06:35;;;;;;;9.65;6.22;;;;;;;24.10;58.64;101157.75;5071880;28;20079;-51
2021/06/18 01:09:09;;;;;;;12.32;6.38;;;;;;;24.05;58.73;101157.19;5073353;28;20062;-52
2021/06/18 01:11:48;;;;;;;11.50;7.18;;;;;;;24.02;58.88;101150.34;5072014;28;20162;-49
2021/06/18 01:14:18;;;;;;;12.23;6.55;;;;;;;24.00;59.04;101149.88;5072197;28;20505;-55
2021/06/18 01:16:53;;;;;;;12.90;7.88;;;;;;;23.91;59.19;101135.28;5073398;28;20086;-49
2021/06/18 01:19:55;;;;;;;14.95;9.88;;;;;;;23.84;59.63;101140.66;5071326;28;20048;-51
2021/06/18 01:22:23;;;;;;;13.45;8.50;;;;;;;23.72;60.20;101161.72;5072408;28;20056;-51
2021/06/18 01:25:14;;;;;;;12.30;7.82;;;;;;;23.67;60.29;101170.31;5072914;28;20106;-49
2021/06/18 01:27:50;;;;;;;15.40;9.45;;;;;;;23.75;60.23;101174.97;5071505;28;20087;-52
2021/06/18 01:30:19;;;;;;;17.65;8.90;;;;;;;23.77;60.23;101164.31;5071825;28;20048;-52
2021/06/18 01:33:09;;;;;;;12.43;8.60;;;;;;;23.75;60.27;101171.38;5073728;28;20045;-51
2021/06/18 01:35:50;;;;;;;13.35;8.35;;;;;;;23.79;60.10;101181.47;5075508;28;20048;-49
2021/06/18 01:38:20;;;;;;;15.35;9.25;;;;;;;23.81;60.10;101181.09;5075269;28;20060;-50
2021/06/18 01:40:51;;;;;;;16.40;8.85;;;;;;;23.80;60.20;101177.50;5076720;28;20048;-50
2021/06/18 01:43:21;;;;;;;15.20;9.70;;;;;;;23.84;60.13;101174.06;5075430;28;20078;-49
2021/06/18 01:45:50;;;;;;;12.90;9.10;;;;;;;23.79;60.42;101178.69;5075997;28;20041;-52
2021/06/18 01:48:20;;;;;;;13.95;8.43;;;;;;;23.83;60.25;101194.69;5076402;28;20044;-54
2021/06/18 01:50:50;;;;;;;16.40;9.10;;;;;;;23.76;60.40;101196.09;5066240;28;20045;-51
2021/06/18 01:53:20;;;;;;;12.68;8.02;;;;;;;23.76;60.47;101198.88;5071561;28;20037;-51
2021/06/18 01:55:49;;;;;;;13.52;8.15;;;;;;;23.81;60.04;101198.63;5051385;28;20504;-51
2021/06/18 01:58:18;;;;;;;11.30;8.15;;;;;;;23.84;60.05;101187.97;5066876;28;20049;-50
2021/06/18 02:00:48;;;;;;;15.38;9.32;;;;;;;23.77;60.23;101186.56;5071762;28;20565;-54
2021/06/18 02:03:20;;;;;;;13.05;8.43;;;;;;;23.70;60.63;101188.28;5071723;28;20053;-51
2021/06/18 02:05:49;;;;;;;14.38;9.45;;;;;;;23.73;60.45;101184.81;5071546;28;20041;-48
2021/06/18 02:08:16;;;;;;;13.25;9.05;;;;;;;23.79;60.41;101181.47;5057596;28;20123;-48
2021/06/18 02:10:46;;;;;;;12.80;8.95;;;;;;;23.87;60.01;101181.69;5056661;28;20033;-50
2021/06/18 02:13:15;;;;;;;17.17;9.80;;;;;;;23.91;60.02;101194.56;5071484;28;20086;-52
2021/06/18 02:15:45;;;;;;;15.20;9.90;;;;;;;23.89;60.12;101187.72;5071702;28;20052;-51
2021/06/18 02:18:15;;;;;;;11.90;9.13;;;;;;;23.74;60.48;101180.88;5070913;28;20076;-53
2021/06/18 02:20:45;;;;;;;14.82;9.77;;;;;;;23.65;61.09;101172.63;5055634;28;20041;-52
2021/06/18 02:23:13;;;;;;;15.75;9.30;;;;;;;23.61;60.97;101177.25;5055998;28;20098;-51
2021/06/18 02:25:41;;;;;;;12.95;9.10;;;;;;;23.53;61.32;101158.72;5051197;28;20412;-50
2021/06/18 02:28:10;;;;;;;15.68;10.68;;;;;;;23.40;61.77;101163.47;5066578;28;20045;-52
2021/06/18 02:30:38;;;;;;;13.00;8.95;;;;;;;23.21;62.51;101158.50;5054633;28;20122;-52
2021/06/18 02:33:12;;;;;;;15.32;9.48;;;;;;;23.17;62.69;101166.69;5055109;28;20116;-53
2021/06/18 02:35:41;;;;;;;14.95;10.23;;;;;;;23.16;62.79;101153.97;5042331;28;20045;-52
2021/06/18 02:38:10;;;;;;;12.68;9.15;;;;;;;23.11;63.05;101148.59;5068691;28;20103;-54
2021/06/18 02:40:39;;;;;;;21.23;10.98;;;;;;;23.16;62.91;101155.91;5075633;28;20060;-52
2021/06/18 02:43:07;;;;;;;14.75;10.70;;;;;;;23.10;62.80;101140.63;5075987;28;20041;-50
2021/06/18 02:45:35;;;;;;;14.60;10.32;;;;;;;23.11;62.93;101139.47;5073972;28;20064;-53
2021/06/18 02:48:07;;;;;;;15.30;10.35;;;;;;;23.16;62.66;101139.22;5075809;28;20052;-51
2021/06/18 02:51:01;;;;;;;14.00;9.90;;;;;;;23.11;62.79;101143.06;5075009;28;20080;-53
2021/06/18 02:53:45;;;;;;;16.38;11.15;;;;;;;23.08;63.06;101148.50;5074697;28;20040;-54
2021/06/18 02:56:21;;;;;;;16.50;10.73;;;;;;;23.14;62.79;101161.84;5063838;28;20044;-53
2021/06/18 02:59:26;;;;;;;14.90;10.90;;;;;;;23.29;62.33;101179.00;5055038;28;20044;-51
2021/06/18 03:01:58;;;;;;;17.40;11.48;;;;;;;23.39;61.94;101190.47;5039319;28;20052;-48
2021/06/18 03:04:28;;;;;;;15.05;11.35;;;;;;;23.46;61.78;101208.56;5074808;28;20449;-49
2021/06/18 03:07:03;;;;;;;17.27;12.20;;;;;;;23.46;61.68;101209.38;5074212;28;20036;-48
2021/06/18 03:09:34;;;;;;;21.13;11.73;;;;;;;23.41;62.06;101203.22;5075217;28;20545;-51
2021/06/18 03:12:02;;;;;;;16.75;11.32;;;;;;;23.36;62.38;101188.38;5074844;28;20071;-52
2021/06/18 03:14:35;;;;;;;18.85;12.73;;;;;;;23.22;62.95;101160.09;5075144;28;20045;-52
2021/06/18 03:17:05;;;;;;;16.15;11.80;;;;;;;23.04;63.77;101142.00;5074862;28;20044;-52
2021/06/18 03:19:38;;;;;;;18.33;12.80;;;;;;;23.05;63.78;101141.66;5073454;28;20064;-53
2021/06/18 03:22:07;;;;;;;19.83;12.50;;;;;;;23.06;63.74;101142.47;5053674;28;20492;-50
2021/06/18 03:24:35;;;;;;;18.40;12.82;;;;;;;22.99;64.01;101126.38;5071559;28;20093;-50
2021/06/18 03:27:04;;;;;;;21.52;12.75;;;;;;;22.84;64.34;101122.25;5073861;28;20052;-51
2021/06/18 03:29:32;;;;;;;16.05;11.40;;;;;;;22.85;64.37;101168.34;5073763;28;20040;-55
2021/06/18 03:32:02;;;;;;;13.20;9.02;;;;;;;23.02;63.66;101294.41;5072307;28;20044;-50
2021/06/18 03:34:32;;;;;;;22.13;12.68;;;;;;;23.16;63.28;101350.50;5072552;28;20090;-55
2021/06/18 03:37:00;;;;;;;19.65;12.73;;;;;;;23.21;63.28;101369.78;5072523;28;20056;-53
2021/06/18 03:39:28;;;;;;;14.88;9.68;;;;;;;23.16;62.77;101368.03;5072665;28;20044;-53
2021/06/18 03:41:59;;;;;;;13.57;8.80;;;;;;;23.17;63.03;101386.31;5073273;28;20045;-53
2021/06/18 03:44:27;;;;;;;17.85;9.18;;;;;;;23.15;64.04;101204.34;5073265;28;20040;-55
2021/06/18 03:46:55;;;;;;;17.02;9.18;;;;;;;22.68;65.78;101163.78;5071986;28;20059;-53
2021/06/18 03:49:25;;;;;;;15.60;6.93;;;;;;;22.71;64.89;101217.84;5071855;28;20445;-55
2021/06/18 03:51:53;;;;;;;13.98;7.35;;;;;;;22.81;66.28;101200.75;5071856;28;20044;-54
2021/06/18 03:54:22;;;;;;;13.93;7.78;;;;;;;22.79;67.03;101203.06;5072028;28;20449;-52
2021/06/18 03:56:51;;;;;;;13.07;7.20;;;;;;;22.80;67.43;101229.69;5071886;28;20064;-52
2021/06/18 03:59:20;;;;;;;10.35;6.38;;;;;;;22.88;67.21;101289.91;5072194;28;20036;-53
2021/06/18 04:01:53;;;;;;;12.70;6.28;;;;;;;23.09;65.63;101389.16;5072366;28;20040;-51
2021/06/18 04:04:23;;;;;;;14.93;7.63;;;;;;;23.27;65.49;101435.16;5071641;28;20045;-55
2021/06/18 04:06:51;;;;;;;13.82;7.40;;;;;;;23.32;64.59;101426.59;5055602;28;20132;-49
2021/06/18 04:09:19;;;;;;;19.23;8.30;;;;;;;23.22;65.71;101342.78;5073366;28;20128;-49
2021/06/18 04:11:47;;;;;;;15.43;6.88;;;;;;;23.17;66.88;101339.06;5055866;28;20123;-51
2021/06/18 04:14:15;;;;;;;19.02;9.07;;;;;;;23.15;68.22;101321.91;5072498;28;20045;-51
2021/06/18 04:16:43;;;;;;;18.73;7.72;;;;;;;22.81;69.53;101267.44;5073286;28;20124;-52
2021/06/18 04:19:13;;;;;;;14.05;6.10;;;;;;;22.70;69.16;101272.56;5072883;28;20090;-52
2021/06/18 04:21:43;;;;;;;17.67;7.35;;;;;;;22.64;68.78;101279.50;5072669;28;20076;-52
2021/06/18 04:24:13;;;;;;;19.92;9.30;;;;;;;22.58;68.99;101271.69;5073231;28;20036;-48
2021/06/18 04:26:42;;;;;;;15.30;7.72;;;;;;;22.51;69.17;101261.13;5073306;28;20052;-50
2021/06/18 04:29:11;;;;;;;14.23;7.38;;;;;;;22.47;68.98;101249.91;5072546;28;20395;-50
2021/06/18 04:31:39;;;;;;;15.05;6.40;;;;;;;22.43;68.58;101248.94;5073345;28;20045;-48
2021/06/18 04:34:07;;;;;;;16.33;7.45;;;;;;;22.44;69.35;101235.88;5072824;28;20062;-49
2021/06/18 04:36:37;;;;;;;13.85;6.90;;;;;;;22.47;69.45;101238.00;5072521;28;20040;-48
2021/06/18 04:39:08;;;;;;;15.38;6.97;;;;;;;22.46;69.13;101239.13;5053348;28;20044;-56
2021/06/18 04:41:36;;;;;;;15.32;7.55;;;;;;;22.52;68.71;101249.69;5053210;28;20053;-48
2021/06/18 04:44:05;;;;;;;13.35;6.35;;;;;;;22.52;68.50;101249.69;5053100;28;20064;-50
2021/06/18 04:46:33;;;;;;;15.85;6.40;;;;;;;22.48;69.15;101243.19;5054202;28;20087;-54
2021/06/18 04:49:01;;;;;;;13.60;6.60;;;;;;;22.32;69.64;101234.66;5055531;28;20049;-52
2021/06/18 04:51:29;;;;;;;13.93;6.57;;;;;;;22.30;70.17;101253.63;5054726;28;20473;-54
2021/06/18 04:53:57;;;;;;;12.45;5.88;;;;;;;22.32;70.63;101267.13;5046514;28;20045;-53
2021/06/18 04:56:24;;;;;;;12.02;6.40;;;;;;;22.38;70.36;101257.47;5053263;28;20045;-53
2021/06/18 04:58:52;;;;;;;10.10;5.32;;;;;;;22.45;69.61;101256.94;5052060;28;20033;-51
2021/06/18 05:01:20;;;;;;;10.75;4.95;;;;;;;22.33;70.16;101260.44;5053171;28;20487;-53
2021/06/18 05:03:47;;;;;;;11.60;5.03;;;;;;;22.27;71.15;101268.19;5059289;28;20076;-50
2021/06/18 05:06:15;;;;;;;10.55;4.88;;;;;;;22.33;71.15;101269.59;5056202;28;20090;-51
2021/06/18 05:08:42;;;;;;;9.25;4.72;;;;;;;22.28;70.88;101268.97;5037303;28;20098;-51
2021/06/18 05:11:10;;;;;;;9.65;3.97;;;;;;;22.27;70.86;101259.00;5054472;28;20041;-52
2021/06/18 05:13:38;;;;;;;8.57;4.90;;;;;;;22.23;71.33;101252.53;5052647;28;20099;-51
2021/06/18 05:16:05;;;;;;;9.73;4.97;;;;;;;22.20;71.47;101231.81;5052551;28;20045;-53
2021/06/18 05:18:33;;;;;;;12.38;4.78;;;;;;;22.16;72.10;101230.00;5053126;28;20041;-48
2021/06/18 05:21:01;;;;;;;8.70;5.32;;;;;;;22.00;72.22;101238.09;5051301;28;20068;-50
2021/06/18 05:23:29;;;;;;;9.20;5.10;;;;;;;21.94;73.24;101245.81;5052749;28;20037;-53
2021/06/18 05:25:56;;;;;;;10.65;6.63;;;;;;;21.93;73.25;101241.41;5052404;28;20095;-51
2021/06/18 05:28:24;;;;;;;12.30;7.22;;;;;;;21.82;73.49;101237.41;5038556;28;20045;-53
2021/06/18 05:30:52;;;;;;;14.20;7.80;;;;;;;21.77;73.81;101245.88;5052733;28;20056;-50
2021/06/18 05:33:22;;;;;;;13.30;7.90;;;;;;;21.68;74.39;101241.19;5034693;28;20049;-51
2021/06/18 05:35:49;;;;;;;13.77;8.75;;;;;;;21.67;74.59;101236.81;5052447;28;20154;-51
2021/06/18 05:38:17;;;;;;;12.45;8.48;;;;;;;21.73;74.64;101234.66;5064205;28;20076;-53
2021/06/18 05:40:44;;;;;;;17.85;9.65;;;;;;;21.82;74.46;101234.63;5049581;28;20056;-52
2021/06/18 05:43:12;;;;;;;13.38;10.27;;;;;;;21.92;74.18;101228.69;5067868;28;20044;-48
2021/06/18 05:45:40;;;;;;;13.10;9.27;;;;;;;21.89;74.22;101226.59;5072044;28;20071;-50
2021/06/18 05:48:08;;;;;;;14.75;10.27;;;;;;;21.97;74.11;101227.69;5071999;28;20091;-51
2021/06/18 05:50:36;;;;;;;14.05;11.02;;;;;;;21.98;73.69;101230.09;5071446;28;20041;-50
2021/06/18 05:53:03;;;;;;;15.40;10.77;;;;;;;22.02;74.10;101231.06;5071621;28;20087;-52
2021/06/18 05:55:31;;;;;;;16.15;12.40;;;;;;;22.00;73.96;101236.13;5071329;28;20079;-51
2021/06/18 05:57:59;;;;;;;15.63;11.55;;;;;;;21.93;74.19;101233.06;5071575;28;20033;-52
2021/06/18 06:00:27;;;;;;;19.27;13.57;;;;;;;21.86;74.37;101241.09;5071740;28;20075;-55
2021/06/18 06:03:08;;;;;;;18.23;12.95;;;;;;;21.81;74.62;101238.53;5071874;28;20041;-53
2021/06/18 06:05:37;;;;;;;20.25;13.85;;;;;;;21.83;74.61;101239.81;5071280;28;20041;-53
2021/06/18 06:08:09;;;;;;;18.42;14.35;;;;;;;21.85;74.41;101242.28;5070935;28;20059;-52
2021/06/18 06:10:48;;;;;;;16.60;12.80;;;;;;;21.84;74.35;101243.41;5071054;28;20483;-50
2021/06/18 06:13:17;;;;;;;16.33;10.13;;;;;;;21.94;74.24;101250.56;5053393;28;20418;-55
2021/06/18 06:15:46;;;;;;;15.55;11.65;;;;;;;22.01;73.71;101251.66;5071498;28;20032;-52
2021/06/18 06:18:14;;;;;;;15.85;11.65;;;;;;;22.11;73.48;101250.44;5071274;28;20041;-54
2021/06/18 06:20:43;;;;;;;14.52;10.50;;;;;;;22.18;73.13;101245.19;5074961;28;20049;-58
2021/06/18 06:23:11;;;;;;;13.82;11.20;;;;;;;22.31;73.23;101240.53;5074788;28;20344;-49
2021/06/18 06:25:40;;;;;;;16.92;11.07;;;;;;;22.37;72.89;101241.16;5074188;28;20097;-49
2021/06/18 06:28:08;;;;;;;14.88;11.65;;;;;;;22.38;73.02;101245.56;5074566;28;20032;-47
2021/06/18 06:30:36;;;;;;;15.13;10.55;;;;;;;22.28;72.14;101249.56;5074462;28;20041;-49
2021/06/18 06:33:04;;;;;;;14.57;10.38;;;;;;;22.25;72.81;101259.38;5074538;28;20044;-49
2021/06/18 06:35:33;;;;;;;14.07;11.13;;;;;;;22.28;72.92;101260.66;5074649;28;20051;-50
2021/06/18 06:38:01;;;;;;;14.82;10.85;;;;;;;22.30;72.82;101252.81;5074023;28;20063;-50
2021/06/18 06:40:28;;;;;;;15.15;10.15;;;;;;;22.23;72.26;101241.44;5074133;28;20037;-48
2021/06/18 06:42:56;;;;;;;15.52;9.90;;;;;;;22.18;72.42;101234.06;5053253;28;20499;-51
2021/06/18 06:45:24;;;;;;;15.15;10.27;;;;;;;22.22;72.74;101245.34;5060078;28;20063;-52
2021/06/18 06:47:51;;;;;;;11.90;8.50;;;;;;;22.28;72.67;101247.59;5074605;28;20068;-55
2021/06/18 06:50:19;;;;;;;11.55;8.80;;;;;;;22.30;72.56;101253.63;5073719;28;20041;-51
2021/06/18 06:52:47;;;;;;;13.15;9.13;;;;;;;22.32;72.33;101256.03;5073241;28;20102;-53
2021/06/18 06:55:15;;;;;;;13.98;10.80;;;;;;;22.28;72.49;101252.34;5073903;28;20506;-53
2021/06/18 06:57:42;;;;;;;13.77;10.02;;;;;;;22.22;72.83;101259.22;5074733;28;20041;-53
2021/06/18 07:00:10;;;;;;;12.90;10.35;;;;;;;22.19;72.86;101248.75;5072934;28;20059;-48
2021/06/18 07:02:39;;;;;;;13.95;9.88;;;;;;;22.16;73.00;101246.66;5073609;28;20132;-54
2021/06/18 07:05:07;;;;;;;12.32;9.30;;;;;;;22.16;73.07;101252.22;5073440;28;20040;-53
2021/06/18 07:07:36;;;;;;;12.90;10.20;;;;;;;22.23;72.89;101252.53;5073039;28;20433;-54
2021/06/18 07:10:05;;;;;;;14.00;11.10;;;;;;;22.32;72.75;101250.47;5073159;28;20057;-54
2021/06/18 07:12:33;;;;;;;17.77;12.00;;;;;;;22.25;73.70;101258.56;5073640;28;20568;-53
2021/06/18 07:15:01;;;;;;;15.05;10.85;;;;;;;22.12;74.35;101246.50;5073819;28;20036;-55
2021/06/18 07:17:28;;;;;;;11.85;9.52;;;;;;;22.15;74.37;101245.03;5073179;28;20052;-53
2021/06/18 07:19:57;;;;;;;12.43;9.65;;;;;;;22.21;74.04;101257.59;5073253;28;20044;-51
2021/06/18 07:22:25;;;;;;;15.60;10.50;;;;;;;22.28;73.70;101263.44;5072700;28;20036;-54
2021/06/18 07:24:54;;;;;;;19.05;11.57;;;;;;;22.36;73.79;101251.44;5073438;28;20059;-53
2021/06/18 07:27:23;;;;;;;14.73;11.38;;;;;;;22.34;73.96;101237.09;5073263;28;20045;-54
2021/06/18 07:29:54;;;;;;;17.55;10.45;;;;;;;22.29;73.83;101234.50;5072672;28;20072;-51
2021/06/18 07:32:25;;;;;;;14.02;8.98;;;;;;;22.32;73.46;101244.94;5073374;28;20533;-52
2021/06/18 07:34:53;;;;;;;15.00;10.18;;;;;;;22.39;73.57;101242.44;5073626;28;20564;-56
2021/06/18 07:37:20;;;;;;;18.67;13.30;;;;;;;22.41;73.95;101220.69;5072903;28;20064;-52
2021/06/18 07:39:48;;;;;;;15.10;10.35;;;;;;;22.36;74.11;101203.44;5073497;28;20052;-52
2021/06/18 07:42:32;;;;;;;15.25;11.52;;;;;;;22.32;74.50;101186.63;5073541;28;20511;-52
2021/06/18 07:44:59;;;;;;;14.95;10.88;;;;;;;22.31;74.59;101179.47;5073522;28;20384;-51
2021/06/18 07:47:27;;;;;;;13.38;11.00;;;;;;;22.30;75.07;101191.72;5073349;28;20052;-51
2021/06/18 07:49:55;;;;;;;15.35;11.55;;;;;;;22.28;75.39;101199.59;5072913;28;20048;-55
2021/06/18 07:52:23;;;;;;;18.88;12.05;;;;;;;22.29;75.14;101206.75;5074038;28;20049;-51
2021/06/18 07:54:55;;;;;;;16.27;11.35;;;;;;;22.33;75.03;101207.72;5074831;28;20079;-53
2021/06/18 07:57:23;;;;;;;16.77;11.98;;;;;;;22.38;74.78;101188.06;5074701;28;20040;-53
2021/06/18 07:59:51;;;;;;;19.40;13.25;;;;;;;22.42;75.30;101191.78;5074225;28;20052;-52
2021/06/18 08:02:19;;;;;;;15.15;11.55;;;;;;;22.39;75.27;101183.31;5074575;28;20041;-52
2021/06/18 08:04:51;;;;;;;16.95;11.73;;;;;;;22.42;74.88;101183.47;5074038;28;20040;-55
2021/06/18 08:07:19;;;;;;;16.10;12.25;;;;;;;22.46;74.56;101180.81;5073593;28;20071;-52
2021/06/18 08:09:47;;;;;;;14.93;12.07;;;;;;;22.46;74.48;101178.84;5051678;28;20106;-54
2021/06/18 08:12:15;;;;;;;17.90;14.32;;;;;;;22.49;75.25;101183.72;5065816;28;20044;-52
2021/06/18 08:14:43;;;;;;;18.08;12.98;;;;;;;22.49;74.43;101180.16;5072894;28;20165;-53
2021/06/18 08:17:10;;;;;;;18.35;13.30;;;;;;;22.51;75.08;101170.31;5073179;28;20036;-52
2021/06/18 08:19:38;;;;;;;15.07;12.07;;;;;;;22.57;74.84;101170.09;5072561;28;20482;-55
2021/06/18 08:22:06;;;;;;;16.52;12.45;;;;;;;22.61;74.76;101157.13;5072138;28;20075;-50
2021/06/18 08:24:34;;;;;;;17.50;12.90;;;;;;;22.67;74.46;101155.78;5072359;28;20114;-50
2021/06/18 08:27:03;;;;;;;19.30;12.07;;;;;;;22.68;74.84;101158.22;5072653;28;20441;-52
2021/06/18 08:29:31;;;;;;;15.05;11.32;;;;;;;22.71;75.13;101151.97;5072477;28;20372;-50
2021/06/18 08:31:58;;;;;;;18.45;14.20;;;;;;;22.79;75.20;101155.00;5072648;28;20415;-51
2021/06/18 08:34:26;;;;;;;17.40;12.85;;;;;;;22.81;75.13;101150.75;5072206;28;20399;-50
2021/06/18 08:36:54;;;;;;;18.23;14.88;;;;;;;22.85;75.07;101145.28;5072226;28;20053;-55
2021/06/18 08:39:23;;;;;;;17.52;13.48;;;;;;;22.85;74.71;101151.69;5072186;28;20055;-52
2021/06/18 08:41:50;;;;;;;19.17;14.20;;;;;;;22.91;74.52;101144.72;5054409;28;20552;-54
2021/06/18 08:44:19;;;;;;;16.65;13.30;;;;;;;22.97;74.29;101157.25;5072256;28;20048;-52
2021/06/18 08:46:47;;;;;;;19.95;14.18;;;;;;;23.03;74.60;101163.44;5072030;28;20045;-53
2021/06/18 08:49:15;;;;;;;20.80;14.63;;;;;;;23.09;74.60;101161.22;5072068;28;20045;-50
2021/06/18 08:51:43;;;;;;;18.08;14.32;;;;;;;23.17;74.52;101160.34;5071589;28;20552;-50
2021/06/18 08:54:12;;;;;;;16.60;12.93;;;;;;;23.23;73.36;101169.25;5070866;28;20052;-52
2021/06/18 08:56:40;;;;;;;16.30;13.73;;;;;;;23.29;72.98;101165.09;5072217;28;20085;-49
2021/06/18 08:59:08;;;;;;;19.58;14.05;;;;;;;23.32;73.17;101158.84;5071891;28;20415;-48
2021/06/18 09:01:36;;;;;;;18.25;13.63;;;;;;;23.35;71.99;101163.69;5072370;28;20036;-50
2021/06/18 09:04:06;;;;;;;21.25;13.43;;;;;;;23.39;72.59;101159.88;5071371;28;20044;-53
2021/06/18 09:06:35;;;;;;;21.95;13.10;;;;;;;23.46;72.31;101166.84;5050567;28;20067;-51
2021/06/18 09:09:11;;;;;;;18.75;13.27;;;;;;;23.52;71.64;101157.94;5066818;28;20041;-50
2021/06/18 09:11:47;;;;;;;16.92;12.45;;;;;;;23.54;69.35;101165.91;5072225;28;20048;-51
2021/06/18 09:14:22;;;;;;;21.13;10.68;;;;;;;23.55;69.46;101173.91;5071795;28;20441;-52
2021/06/18 09:17:12;;;;;;;15.70;10.98;;;;;;;23.61;68.94;101180.84;5071813;28;20048;-54
2021/06/18 09:19:58;;;;;;;15.55;11.27;;;;;;;23.66;68.59;101179.81;5070846;28;20055;-50
2021/06/18 09:22:38;;;;;;;18.25;11.13;;;;;;;23.69;68.21;101173.56;5064494;28;20056;-50
2021/06/18 09:25:12;;;;;;;16.20;10.65;;;;;;;23.74;68.17;101173.38;5066866;28;20090;-47
2021/06/18 09:27:43;;;;;;;18.00;12.70;;;;;;;23.79;67.16;101173.13;5072254;28;20047;-48
2021/06/18 09:30:19;;;;;;;21.48;16.25;;;;;;;23.83;66.81;101162.09;5059030;28;20041;-50
2021/06/18 09:32:58;;;;;;;20.98;14.57;;;;;;;23.87;65.93;101165.78;5071106;28;20053;-53
2021/06/18 09:35:29;;;;;;;19.60;13.43;;;;;;;23.89;65.67;101151.53;5071507;28;20044;-53
2021/06/18 09:38:00;;;;;;;17.75;12.13;;;;;;;23.92;65.78;101157.22;5060802;28;20045;-51
2021/06/18 09:40:28;;;;;;;17.10;12.77;;;;;;;23.95;65.98;101148.16;5032924;28;20049;-52
2021/06/18 09:43:15;;;;;;;21.02;13.55;;;;;;;23.99;66.14;101139.91;5039213;28;20049;-53
2021/06/18 09:45:44;;;;;;;22.63;11.05;;;;;;;24.05;66.35;101144.06;5042410;28;20041;-54
2021/06/18 09:48:21;;;;;;;19.08;13.57;;;;;;;24.09;65.61;101139.41;5051270;28;20045;-51
2021/06/18 09:51:00;;;;;;;18.45;11.57;;;;;;;24.16;65.90;101136.84;5050999;28;20075;-47
2021/06/18 09:53:31;;;;;;;21.50;15.27;;;;;;;24.22;65.39;101132.66;5051648;28;20048;-51
2021/06/18 09:56:13;;;;;;;25.88;17.20;;;;;;;24.30;65.11;101130.09;5055661;28;20060;-51
2021/06/18 09:58:42;;;;;;;26.35;15.60;;;;;;;24.35;64.79;101124.25;5055628;28;20565;-48
2021/06/18 10:01:19;;;;;;;21.70;16.95;;;;;;;24.40;65.14;101124.00;5054876;28;20040;-55
2021/06/18 10:04:07;;;;;;;25.27;17.27;;;;;;;24.47;65.19;101123.44;5055438;28;20064;-49
2021/06/18 10:06:36;;;;;;;23.85;17.70;;;;;;;24.53;64.39;101124.78;5043733;28;20442;-51
2021/06/18 10:09:06;;;;;;;24.63;17.23;;;;;;;24.57;64.22;101131.25;5055357;28;20094;-48
2021/06/18 10:11:34;;;;;;;26.23;19.45;;;;;;;24.60;63.42;101134.13;5055442;28;20036;-45
2021/06/18 10:14:02;;;;;;;29.33;19.83;;;;;;;24.62;63.24;101131.81;5055542;28;20044;-51
2021/06/18 10:16:30;;;;;;;24.33;18.17;;;;;;;24.60;63.76;101128.56;5054487;28;20063;-47
2021/06/18 10:18:59;;;;;;;24.85;18.40;;;;;;;24.62;63.83;101129.00;5055376;28;20405;-52
2021/06/18 10:21:29;;;;;;;22.63;17.15;;;;;;;24.64;63.13;101129.47;5054367;28;20450;-52
2021/06/18 10:24:00;;;;;;;26.52;18.48;;;;;;;24.65;63.46;101125.53;5053830;28;20126;-50
2021/06/18 10:26:29;;;;;;;28.88;18.98;;;;;;;24.64;63.04;101126.69;5053378;28;20052;-53
2021/06/18 10:29:02;;;;;;;25.67;16.00;;;;;;;24.64;62.79;101120.31;5054195;28;20414;-48
2021/06/18 10:31:31;;;;;;;33.88;20.88;;;;;;;24.64;63.27;101112.75;5036478;28;20041;-52
2021/06/18 10:34:16;;;;;;;24.80;18.55;;;;;;;24.67;62.32;101100.88;5055283;28;20055;-51
2021/06/18 10:36:44;;;;;;;29.25;21.13;;;;;;;24.65;63.06;101106.03;5054664;28;20515;-53
2021/06/18 10:39:15;;;;;;;24.98;18.05;;;;;;;24.67;63.75;101100.88;5072404;28;20056;-50
2021/06/18 10:41:48;;;;;;;26.27;17.80;;;;;;;24.74;63.59;101099.47;5074563;28;20040;-50
2021/06/18 10:44:39;;;;;;;26.02;16.70;;;;;;;24.81;63.42;101094.88;5074744;28;20073;-51
2021/06/18 10:47:30;;;;;;;24.02;15.35;;;;;;;24.91;62.73;101095.53;5072843;28;20044;-49
2021/06/18 10:49:59;;;;;;;21.73;15.85;;;;;;;24.97;61.41;101086.53;5072986;28;20380;-52
2021/06/18 10:52:44;;;;;;;19.88;14.70;;;;;;;25.01;62.33;101081.03;5074392;28;20140;-51
2021/06/18 10:55:14;;;;;;;22.70;14.68;;;;;;;25.08;62.12;101075.63;5074759;28;20051;-50
2021/06/18 10:57:53;;;;;;;23.33;16.80;;;;;;;25.13;61.96;101068.97;5073588;28;20459;-53
2021/06/18 11:00:22;;;;;;;23.70;17.80;;;;;;;25.21;62.42;101076.41;5071285;28;20491;-47
2021/06/18 11:02:50;;;;;;;28.45;16.40;;;;;;;25.24;62.07;101078.47;4371953;28;10000613;-53
2021/06/18 11:05:18;;;;;;;28.30;16.58;;;;;;;25.25;59.91;101072.50;5071347;28;20476;-52
2021/06/18 11:07:46;;;;;;;16.98;10.65;;;;;;;25.26;57.51;101084.50;5073009;28;20063;-50
2021/06/18 11:10:28;;;;;;;20.98;13.75;;;;;;;25.28;59.62;101082.94;5039468;28;20075;-53
2021/06/18 11:13:00;;;;;;;20.08;12.73;;;;;;;25.34;59.92;101080.69;5057544;28;20040;-52
2021/06/18 11:15:30;;;;;;;18.33;12.23;;;;;;;25.43;58.34;101074.91;5074308;28;20045;-53
2021/06/18 11:18:19;;;;;;;18.38;11.00;;;;;;;25.51;57.52;101077.50;5074876;28;20055;-49
2021/06/18 11:20:50;;;;;;;20.80;12.10;;;;;;;25.55;57.29;101083.16;5074653;28;20045;-60
2021/06/18 11:23:22;;;;;;;20.40;14.48;;;;;;;25.57;57.45;101085.56;5074355;28;20414;-52
2021/06/18 11:25:56;;;;;;;19.00;11.98;;;;;;;25.59;57.94;101081.28;5075003;28;20047;-53
2021/06/18 11:28:24;;;;;;;17.25;10.07;;;;;;;25.64;58.02;101067.03;5074897;28;20037;-55
2021/06/18 11:30:56;;;;;;;15.10;8.73;;;;;;;25.68;58.08;101064.31;5074659;28;20044;-51